createdAt,value
2018-04-02T00:00:46.390Z,0
2018-04-02T00:01:48.109Z,0
2018-04-02T00:02:49.520Z,0
2018-04-02T00:03:50.963Z,0
2018-04-02T00:04:52.477Z,0
2018-04-02T00:05:54.153Z,0
2018-04-02T00:06:55.875Z,0
2018-04-02T00:07:57.611Z,0
2018-04-02T00:08:59.052Z,0
2018-04-02T00:10:00.501Z,0
2018-04-02T00:11:02.238Z,0
2018-04-02T00:12:03.658Z,0
2018-04-02T00:13:05.129Z,0
2018-04-02T00:14:06.741Z,0
2018-04-02T00:15:08.464Z,0
2018-04-02T00:16:10.157Z,0
2018-04-02T00:17:11.648Z,0
2018-04-02T00:18:13.178Z,0
2018-04-02T00:19:14.596Z,0
2018-04-02T00:20:16.029Z,0
2018-04-02T00:21:17.485Z,0
2018-04-02T00:22:19.236Z,0
2018-04-02T00:23:21.241Z,0
2018-04-02T00:24:23.080Z,0
2018-04-02T00:25:24.779Z,0
2018-04-02T00:26:26.516Z,0
2018-04-02T00:27:27.957Z,0
2018-04-02T00:28:29.886Z,0
2018-04-02T00:29:32.135Z,0
2018-04-02T00:30:34.238Z,0
2018-04-02T00:31:35.859Z,0
2018-04-02T00:32:37.633Z,0
2018-04-02T00:33:39.430Z,0
2018-04-02T00:34:41.129Z,0
2018-04-02T00:35:43.276Z,0
2018-04-02T00:36:45.277Z,0
2018-04-02T00:37:47.291Z,0
2018-04-02T00:38:49.288Z,0
2018-04-02T00:39:50.934Z,0
2018-04-02T00:40:53.145Z,0
2018-04-02T00:41:54.958Z,0
2018-04-02T00:42:56.368Z,0
2018-04-02T00:43:58.116Z,0
2018-04-02T00:44:59.586Z,0
2018-04-02T00:46:01.064Z,0
2018-04-02T00:47:02.831Z,0
2018-04-02T00:48:04.867Z,0
2018-04-02T00:49:06.744Z,0
2018-04-02T00:50:08.580Z,0
2018-04-02T00:51:10.420Z,0
2018-04-02T00:52:12.939Z,0
2018-04-02T00:53:14.532Z,0
2018-04-02T00:54:16.032Z,0
2018-04-02T00:55:18.045Z,0
2018-04-02T00:56:19.716Z,0
2018-04-02T00:57:21.533Z,0
2018-04-02T00:58:23.302Z,0
2018-04-02T00:59:25.120Z,0
2018-04-02T01:00:27.331Z,0
2018-04-02T01:01:29.416Z,0
2018-04-02T01:02:31.243Z,0
2018-04-02T01:03:33.096Z,0
2018-04-02T01:04:34.510Z,0
2018-04-02T01:05:35.903Z,0
2018-04-02T01:06:37.677Z,0
2018-04-02T01:07:39.346Z,0
2018-04-02T01:08:40.970Z,0
2018-04-02T01:09:42.711Z,0
2018-04-02T01:10:44.464Z,0
2018-04-02T01:11:46.235Z,0
2018-04-02T01:12:47.856Z,0
2018-04-02T01:13:49.582Z,0
2018-04-02T01:14:51.005Z,0
2018-04-02T01:15:52.457Z,0
2018-04-02T01:16:53.919Z,0
2018-04-02T01:17:55.659Z,0
2018-04-02T01:18:57.136Z,0
2018-04-02T01:19:58.576Z,0
2018-04-02T01:21:00.315Z,0
2018-04-02T01:22:02.065Z,0
2018-04-02T01:23:03.789Z,0
2018-04-02T01:24:05.188Z,0
2018-04-02T01:25:07.149Z,0
2018-04-02T01:26:09.120Z,0
2018-04-02T01:27:10.603Z,0
2018-04-02T01:28:12.761Z,0
2018-04-02T01:29:14.416Z,0
2018-04-02T01:30:16.114Z,0
2018-04-02T01:31:17.840Z,0
2018-04-02T01:32:19.605Z,0
2018-04-02T01:33:21.300Z,0
2018-04-02T01:34:22.861Z,0
2018-04-02T01:35:24.500Z,0
2018-04-02T01:36:25.949Z,0
2018-04-02T01:37:27.412Z,0
2018-04-02T01:38:28.834Z,0
2018-04-02T01:39:30.541Z,0
2018-04-02T01:40:32.323Z,0
2018-04-02T01:41:34.012Z,0
2018-04-02T01:42:35.691Z,0
2018-04-02T01:43:37.477Z,0
2018-04-02T01:44:38.922Z,0
2018-04-02T01:45:40.731Z,0
2018-04-02T01:46:42.167Z,0
2018-04-02T01:47:43.930Z,0
2018-04-02T01:48:45.702Z,0
2018-04-02T01:49:47.432Z,0
2018-04-02T01:50:49.268Z,0
2018-04-02T01:51:50.962Z,0
2018-04-02T01:52:52.712Z,0
2018-04-02T01:53:54.412Z,0
2018-04-02T01:54:56.174Z,0
2018-04-02T01:55:57.884Z,0
2018-04-02T01:56:59.397Z,0
2018-04-02T01:58:00.803Z,0
2018-04-02T01:59:02.368Z,0
2018-04-02T02:00:04.064Z,0
2018-04-02T02:01:05.468Z,0
2018-04-02T02:02:06.952Z,0
2018-04-02T02:03:08.703Z,0
2018-04-02T02:04:10.545Z,0
2018-04-02T02:05:12.005Z,0
2018-04-02T02:06:13.643Z,0
2018-04-02T02:07:15.082Z,0
2018-04-02T02:08:16.537Z,0
2018-04-02T02:09:18.294Z,0
2018-04-02T02:10:20.076Z,0
2018-04-02T02:11:21.832Z,0
2018-04-02T02:12:23.266Z,0
2018-04-02T02:13:25.046Z,0
2018-04-02T02:14:26.754Z,0
2018-04-02T02:15:28.201Z,0
2018-04-02T02:16:30.006Z,0
2018-04-02T02:17:31.900Z,0
2018-04-02T02:18:33.300Z,0
2018-04-02T02:19:35.016Z,0
2018-04-02T02:20:36.654Z,0
2018-04-02T02:21:38.121Z,0
2018-04-02T02:22:39.598Z,0
2018-04-02T02:23:41.077Z,0
2018-04-02T02:24:42.532Z,0
2018-04-02T02:25:44.273Z,0
2018-04-02T02:26:46.026Z,0
2018-04-02T02:27:47.859Z,0
2018-04-02T02:28:49.286Z,0
2018-04-02T02:29:50.733Z,0
2018-04-02T02:30:52.226Z,0
2018-04-02T02:31:53.642Z,0
2018-04-02T02:32:55.116Z,0
2018-04-02T02:33:56.911Z,0
2018-04-02T02:34:58.394Z,0
2018-04-02T02:35:59.809Z,0
2018-04-02T02:37:01.498Z,0
2018-04-02T02:38:03.267Z,0
2018-04-02T02:39:05.045Z,0
2018-04-02T02:40:06.794Z,0
2018-04-02T02:41:08.512Z,0
2018-04-02T02:42:10.219Z,0
2018-04-02T02:43:11.726Z,0
2018-04-02T02:44:13.492Z,0
2018-04-02T02:45:14.953Z,0
2018-04-02T02:46:16.661Z,0
2018-04-02T02:47:18.107Z,0
2018-04-02T02:48:19.774Z,0
2018-04-02T02:49:21.231Z,0
2018-04-02T02:50:23.018Z,0
2018-04-02T02:51:24.717Z,0
2018-04-02T02:52:26.428Z,0
2018-04-02T02:53:27.835Z,0
2018-04-02T02:54:29.279Z,0
2018-04-02T02:55:30.995Z,0
2018-04-02T02:56:32.785Z,0
2018-04-02T02:57:34.520Z,0
2018-04-02T02:58:36.181Z,0
2018-04-02T02:59:37.701Z,0
2018-04-02T03:00:39.159Z,0
2018-04-02T03:01:41.023Z,0
2018-04-02T03:02:42.818Z,0
2018-04-02T03:03:44.521Z,0
2018-04-02T03:04:45.980Z,0
2018-04-02T03:05:47.502Z,0
2018-04-02T03:06:48.902Z,0
2018-04-02T03:07:50.378Z,0
2018-04-02T03:08:51.839Z,0
2018-04-02T03:09:53.531Z,0
2018-04-02T03:10:55.059Z,0
2018-04-02T03:11:56.819Z,0
2018-04-02T03:12:58.570Z,0
2018-04-02T03:14:00.232Z,0
2018-04-02T03:15:01.929Z,0
2018-04-02T03:16:03.592Z,0
2018-04-02T03:17:05.257Z,0
2018-04-02T03:18:06.748Z,0
2018-04-02T03:19:08.181Z,0
2018-04-02T03:20:09.935Z,0
2018-04-02T03:21:11.398Z,0
2018-04-02T03:22:12.852Z,0
2018-04-02T03:23:14.437Z,0
2018-04-02T03:24:15.900Z,0
2018-04-02T03:25:17.671Z,0
2018-04-02T03:26:19.076Z,0
2018-04-02T03:27:20.768Z,0
2018-04-02T03:28:22.527Z,0
2018-04-02T03:29:24.277Z,0
2018-04-02T03:30:25.776Z,0
2018-04-02T03:31:27.421Z,0
2018-04-02T03:32:29.194Z,0
2018-04-02T03:33:30.937Z,0
2018-04-02T03:34:32.638Z,0
2018-04-02T03:35:34.372Z,0
2018-04-02T03:36:36.111Z,0
2018-04-02T03:37:38.320Z,0
2018-04-02T03:38:39.819Z,0
2018-04-02T03:39:41.623Z,0
2018-04-02T03:40:43.482Z,0
2018-04-02T03:41:45.213Z,0
2018-04-02T03:42:47.006Z,0
2018-04-02T03:43:48.729Z,0
2018-04-02T03:44:50.537Z,0
2018-04-02T03:45:52.374Z,0
2018-04-02T03:46:53.845Z,0
2018-04-02T03:47:55.515Z,0
2018-04-02T03:48:57.036Z,0
2018-04-02T03:49:58.722Z,0
2018-04-02T03:51:00.544Z,0
2018-04-02T03:52:02.309Z,0
2018-04-02T03:53:04.048Z,0
2018-04-02T03:54:05.827Z,0
2018-04-02T03:55:07.286Z,0
2018-04-02T03:56:08.871Z,0
2018-04-02T03:57:10.596Z,0
2018-04-02T03:58:12.074Z,0
2018-04-02T03:59:13.832Z,0
2018-04-02T04:00:15.581Z,0
2018-04-02T04:01:17.070Z,0
2018-04-02T04:02:18.530Z,0
2018-04-02T04:03:20.205Z,0
2018-04-02T04:04:21.633Z,0
2018-04-02T04:05:23.083Z,0
2018-04-02T04:06:24.796Z,0
2018-04-02T04:07:26.233Z,0
2018-04-02T04:08:27.709Z,0
2018-04-02T04:09:29.179Z,0
2018-04-02T04:10:30.877Z,0
2018-04-02T04:11:32.358Z,0
2018-04-02T04:12:34.110Z,0
2018-04-02T04:13:35.865Z,0
2018-04-02T04:14:38.189Z,0
2018-04-02T04:15:39.977Z,0
2018-04-02T04:16:41.679Z,0
2018-04-02T04:17:43.131Z,0
2018-04-02T04:18:44.852Z,0
2018-04-02T04:19:46.580Z,0
2018-04-02T04:20:48.295Z,0
2018-04-02T04:21:50.042Z,0
2018-04-02T04:22:51.751Z,0
2018-04-02T04:23:53.179Z,0
2018-04-02T04:24:54.956Z,0
2018-04-02T04:25:56.372Z,0
2018-04-02T04:26:57.863Z,0
2018-04-02T04:27:59.307Z,0
2018-04-02T04:29:00.967Z,0
2018-04-02T04:30:02.759Z,0
2018-04-02T04:31:04.146Z,0
2018-04-02T04:32:05.611Z,4
2018-04-02T04:33:07.493Z,0
2018-04-02T04:34:08.946Z,4
2018-04-02T04:35:10.407Z,0
2018-04-02T04:36:11.867Z,4
2018-04-02T04:37:13.332Z,4
2018-04-02T04:38:14.779Z,4
2018-04-02T04:39:16.510Z,8
2018-04-02T04:40:17.961Z,8
2018-04-02T04:41:19.678Z,12
2018-04-02T04:42:21.127Z,12
2018-04-02T04:43:22.861Z,12
2018-04-02T04:44:24.612Z,16
2018-04-02T04:45:26.277Z,20
2018-04-02T04:46:28.014Z,24
2018-04-02T04:47:29.515Z,28
2018-04-02T04:48:31.329Z,32
2018-04-02T04:49:32.752Z,36
2018-04-02T04:50:34.536Z,44
2018-04-02T04:51:36.312Z,52
2018-04-02T04:52:37.757Z,60
2018-04-02T04:53:39.593Z,72
2018-04-02T04:54:41.378Z,80
2018-04-02T04:55:43.066Z,92
2018-04-02T04:56:44.556Z,104
2018-04-02T04:57:46.068Z,116
2018-04-02T04:58:47.786Z,132
2018-04-02T04:59:49.388Z,148
2018-04-02T05:00:50.896Z,168
2018-04-02T05:01:52.622Z,184
2018-04-02T05:02:54.048Z,196
2018-04-02T05:03:55.501Z,208
2018-04-02T05:04:57.105Z,220
2018-04-02T05:05:58.824Z,240
2018-04-02T05:07:00.549Z,264
2018-04-02T05:08:01.957Z,276
2018-04-02T05:09:03.622Z,276
2018-04-02T05:10:05.338Z,268
2018-04-02T05:11:07.050Z,280
2018-04-02T05:12:08.503Z,308
2018-04-02T05:13:10.241Z,340
2018-04-02T05:14:12.071Z,380
2018-04-02T05:15:13.802Z,416
2018-04-02T05:16:15.571Z,448
2018-04-02T05:17:17.334Z,480
2018-04-02T05:18:18.807Z,512
2018-04-02T05:19:20.640Z,564
2018-04-02T05:20:22.032Z,620
2018-04-02T05:21:23.737Z,684
2018-04-02T05:22:25.581Z,748
2018-04-02T05:23:27.362Z,808
2018-04-02T05:24:28.793Z,876
2018-04-02T05:25:30.266Z,944
2018-04-02T05:26:32.012Z,1008
2018-04-02T05:27:33.471Z,1048
2018-04-02T05:28:34.954Z,1080
2018-04-02T05:29:36.698Z,1132
2018-04-02T05:30:38.384Z,1208
2018-04-02T05:31:39.841Z,1300
2018-04-02T05:32:41.468Z,1404
2018-04-02T05:33:43.030Z,1500
2018-04-02T05:34:44.691Z,1568
2018-04-02T05:35:46.480Z,1636
2018-04-02T05:36:47.905Z,1724
2018-04-02T05:37:49.390Z,1824
2018-04-02T05:38:50.802Z,1928
2018-04-02T05:39:52.339Z,2020
2018-04-02T05:40:53.982Z,2024
2018-04-02T05:41:55.404Z,1996
2018-04-02T05:42:56.928Z,1908
2018-04-02T05:43:58.626Z,1860
2018-04-02T05:45:00.637Z,1900
2018-04-02T05:46:02.418Z,1964
2018-04-02T05:47:04.173Z,2056
2018-04-02T05:48:05.582Z,2136
2018-04-02T05:49:07.314Z,2204
2018-04-02T05:50:08.801Z,2240
2018-04-02T05:51:10.544Z,2256
2018-04-02T05:52:12.273Z,2284
2018-04-02T05:53:14.065Z,2356
2018-04-02T05:54:15.493Z,2500
2018-04-02T05:55:16.934Z,2692
2018-04-02T05:56:18.412Z,2844
2018-04-02T05:57:20.029Z,3088
2018-04-02T05:58:21.804Z,3316
2018-04-02T05:59:23.548Z,3544
2018-04-02T06:00:25.260Z,3800
2018-04-02T06:01:26.970Z,4044
2018-04-02T06:02:28.831Z,4292
2018-04-02T06:03:30.525Z,4508
2018-04-02T06:04:31.973Z,4696
2018-04-02T06:05:33.562Z,4804
2018-04-02T06:06:35.319Z,4764
2018-04-02T06:07:36.771Z,4724
2018-04-02T06:08:38.315Z,4840
2018-04-02T06:09:40.047Z,4976
2018-04-02T06:10:41.732Z,5108
2018-04-02T06:11:43.553Z,5224
2018-04-02T06:12:45.049Z,5132
2018-04-02T06:13:46.674Z,4788
2018-04-02T06:14:48.155Z,4680
2018-04-02T06:15:49.691Z,4632
2018-04-02T06:16:51.179Z,4688
2018-04-02T06:17:52.661Z,4656
2018-04-02T06:18:54.400Z,4532
2018-04-02T06:19:55.953Z,3952
2018-04-02T06:20:57.676Z,3920
2018-04-02T06:21:59.218Z,3916
2018-04-02T06:23:00.785Z,3944
2018-04-02T06:24:02.335Z,4068
2018-04-02T06:25:03.872Z,4332
2018-04-02T06:26:05.584Z,4632
2018-04-02T06:27:07.039Z,5184
2018-04-02T06:28:08.450Z,5620
2018-04-02T06:29:09.951Z,6456
2018-04-02T06:30:11.435Z,7164
2018-04-02T06:31:13.077Z,8332
2018-04-02T06:32:14.840Z,9060
2018-04-02T06:33:16.253Z,9456
2018-04-02T06:34:17.909Z,10028
2018-04-02T06:35:19.580Z,10456
2018-04-02T06:36:21.357Z,10696
2018-04-02T06:37:23.124Z,10732
2018-04-02T06:38:25.139Z,10520
2018-04-02T06:39:26.673Z,9648
2018-04-02T06:40:28.167Z,8280
2018-04-02T06:41:29.720Z,7608
2018-04-02T06:42:31.476Z,7348
2018-04-02T06:43:33.042Z,7092
2018-04-02T06:44:34.550Z,6992
2018-04-02T06:45:35.971Z,6944
2018-04-02T06:46:37.473Z,6976
2018-04-02T06:47:38.948Z,6964
2018-04-02T06:48:40.441Z,7068
2018-04-02T06:49:42.070Z,7148
2018-04-02T06:50:43.565Z,7260
2018-04-02T06:51:44.988Z,7356
2018-04-02T06:52:46.609Z,7512
2018-04-02T06:53:48.389Z,7728
2018-04-02T06:54:49.963Z,7936
2018-04-02T06:55:51.470Z,8056
2018-04-02T06:56:52.983Z,8160
2018-04-02T06:57:54.426Z,8184
2018-04-02T06:58:55.917Z,8208
2018-04-02T06:59:57.695Z,8308
2018-04-02T07:00:59.444Z,8528
2018-04-02T07:02:01.167Z,8684
2018-04-02T07:03:02.736Z,8848
2018-04-02T07:04:04.294Z,8976
2018-04-02T07:05:05.757Z,9060
2018-04-02T07:06:07.500Z,9048
2018-04-02T07:07:08.979Z,9084
2018-04-02T07:08:10.457Z,9088
2018-04-02T07:09:11.961Z,9196
2018-04-02T07:10:13.429Z,9240
2018-04-02T07:11:14.916Z,9324
2018-04-02T07:12:16.416Z,9548
2018-04-02T07:13:17.901Z,9700
2018-04-02T07:14:19.322Z,9748
2018-04-02T07:15:20.828Z,10124
2018-04-02T07:16:22.352Z,10356
2018-04-02T07:17:24.069Z,10592
2018-04-02T07:18:25.766Z,10796
2018-04-02T07:19:27.531Z,10844
2018-04-02T07:20:29.161Z,10576
2018-04-02T07:21:30.621Z,10624
2018-04-02T07:22:32.308Z,10468
2018-04-02T07:23:34.103Z,10472
2018-04-02T07:24:35.858Z,10464
2018-04-02T07:25:37.532Z,10624
2018-04-02T07:26:39.024Z,10308
2018-04-02T07:27:40.659Z,10376
2018-04-02T07:28:42.219Z,10448
2018-04-02T07:29:43.971Z,10552
2018-04-02T07:30:45.679Z,10624
2018-04-02T07:31:47.127Z,10776
2018-04-02T07:32:48.566Z,11088
2018-04-02T07:33:50.096Z,11276
2018-04-02T07:34:51.565Z,12104
2018-04-02T07:35:53.007Z,10316
2018-04-02T07:36:54.461Z,9720
2018-04-02T07:37:55.890Z,10272
2018-04-02T07:38:57.394Z,9680
2018-04-02T07:39:59.080Z,9668
2018-04-02T07:41:00.491Z,10400
2018-04-02T07:42:01.927Z,11768
2018-04-02T07:43:03.673Z,17312
2018-04-02T07:44:05.213Z,21632
2018-04-02T07:45:06.756Z,19328
2018-04-02T07:46:08.194Z,23392
2018-04-02T07:47:09.968Z,26112
2018-04-02T07:48:11.408Z,24256
2018-04-02T07:49:13.028Z,21088
2018-04-02T07:50:14.460Z,19744
2018-04-02T07:51:15.960Z,21216
2018-04-02T07:52:17.567Z,22048
2018-04-02T07:53:19.692Z,20672
2018-04-02T07:54:21.135Z,20704
2018-04-02T07:55:22.868Z,18144
2018-04-02T07:56:24.316Z,18976
2018-04-02T07:57:25.735Z,16800
2018-04-02T07:58:27.188Z,18528
2018-04-02T07:59:28.658Z,16864
2018-04-02T08:00:30.196Z,16352
2018-04-02T08:01:31.637Z,16128
2018-04-02T08:02:33.352Z,16384
2018-04-02T08:03:35.105Z,16256
2018-04-02T08:04:36.629Z,16160
2018-04-02T08:05:38.431Z,16320
2018-04-02T08:06:40.312Z,17024
2018-04-02T08:07:42.223Z,17984
2018-04-02T08:08:43.774Z,17568
2018-04-02T08:09:45.171Z,17536
2018-04-02T08:10:46.622Z,17568
2018-04-02T08:11:48.361Z,18368
2018-04-02T08:12:49.998Z,17056
2018-04-02T08:13:51.754Z,17120
2018-04-02T08:14:53.505Z,16512
2018-04-02T08:15:55.332Z,16128
2018-04-02T08:16:56.672Z,16512
2018-04-02T08:17:58.569Z,17472
2018-04-02T08:19:00.218Z,20064
2018-04-02T08:20:01.892Z,20256
2018-04-02T08:21:03.705Z,22240
2018-04-02T08:22:05.431Z,18624
2018-04-02T08:23:07.152Z,17536
2018-04-02T08:24:08.716Z,17376
2018-04-02T08:25:10.522Z,17152
2018-04-02T08:26:12.355Z,18080
2018-04-02T08:27:13.825Z,18528
2018-04-02T08:28:15.309Z,18912
2018-04-02T08:29:16.864Z,20576
2018-04-02T08:30:18.487Z,19392
2018-04-02T08:31:20.047Z,19648
2018-04-02T08:32:21.788Z,19712
2018-04-02T08:33:23.533Z,20960
2018-04-02T08:34:24.989Z,19456
2018-04-02T08:35:26.625Z,19392
2018-04-02T08:36:28.194Z,19392
2018-04-02T08:37:29.648Z,19936
2018-04-02T08:38:31.313Z,20384
2018-04-02T08:39:33.081Z,20192
2018-04-02T08:40:34.906Z,19904
2018-04-02T08:41:36.328Z,19488
2018-04-02T08:42:38.004Z,19936
2018-04-02T08:43:39.622Z,19520
2018-04-02T08:44:41.104Z,17856
2018-04-02T08:45:42.545Z,17216
2018-04-02T08:46:44.118Z,16736
2018-04-02T08:47:45.851Z,16736
2018-04-02T08:48:47.556Z,18240
2018-04-02T08:49:49.060Z,19008
2018-04-02T08:50:50.617Z,19200
2018-04-02T08:51:52.091Z,17344
2018-04-02T08:52:53.945Z,17408
2018-04-02T08:53:55.766Z,18656
2018-04-02T08:54:57.618Z,21024
2018-04-02T08:55:59.370Z,30688
2018-04-02T08:57:00.999Z,27648
2018-04-02T08:58:02.496Z,27648
2018-04-02T08:59:03.949Z,21920
2018-04-02T09:00:05.694Z,21376
2018-04-02T09:01:07.145Z,21760
2018-04-02T09:02:08.596Z,21408
2018-04-02T09:03:10.051Z,18848
2018-04-02T09:04:11.555Z,17952
2018-04-02T09:05:13.256Z,18816
2018-04-02T09:06:14.968Z,19456
2018-04-02T09:07:16.776Z,19584
2018-04-02T09:08:18.550Z,20032
2018-04-02T09:09:19.980Z,21504
2018-04-02T09:10:21.432Z,23328
2018-04-02T09:11:23.039Z,23776
2018-04-02T09:12:24.456Z,23232
2018-04-02T09:13:26.033Z,21984
2018-04-02T09:14:27.482Z,20480
2018-04-02T09:15:29.266Z,21024
2018-04-02T09:16:30.822Z,21856
2018-04-02T09:17:32.480Z,22016
2018-04-02T09:18:33.989Z,22848
2018-04-02T09:19:35.637Z,23264
2018-04-02T09:20:37.098Z,23936
2018-04-02T09:21:38.589Z,27232
2018-04-02T09:22:40.029Z,24640
2018-04-02T09:23:41.775Z,28480
2018-04-02T09:24:43.266Z,29024
2018-04-02T09:25:45.049Z,31008
2018-04-02T09:26:46.867Z,26240
2018-04-02T09:27:48.760Z,30944
2018-04-02T09:28:50.227Z,27552
2018-04-02T09:29:51.778Z,28480
2018-04-02T09:30:53.741Z,35744
2018-04-02T09:31:55.729Z,31808
2018-04-02T09:32:57.500Z,33504
2018-04-02T09:33:58.953Z,27456
2018-04-02T09:35:00.403Z,28416
2018-04-02T09:36:02.148Z,26912
2018-04-02T09:37:03.781Z,25696
2018-04-02T09:38:05.375Z,25696
2018-04-02T09:39:06.950Z,26912
2018-04-02T09:40:08.813Z,24544
2018-04-02T09:41:10.632Z,25376
2018-04-02T09:42:12.500Z,28480
2018-04-02T09:43:14.321Z,18400
2018-04-02T09:44:16.126Z,16512
2018-04-02T09:45:17.809Z,15872
2018-04-02T09:46:19.268Z,16512
2018-04-02T09:47:21.104Z,17664
2018-04-02T09:48:22.900Z,18464
2018-04-02T09:49:24.715Z,18336
2018-04-02T09:50:26.462Z,18400
2018-04-02T09:51:28.123Z,18752
2018-04-02T09:52:29.603Z,19520
2018-04-02T09:53:31.305Z,20192
2018-04-02T09:54:32.848Z,20608
2018-04-02T09:55:34.564Z,20800
2018-04-02T09:56:36.258Z,20576
2018-04-02T09:57:37.904Z,19072
2018-04-02T09:58:39.609Z,17504
2018-04-02T09:59:41.374Z,16704
2018-04-02T10:00:43.108Z,16864
2018-04-02T10:01:44.912Z,17568
2018-04-02T10:02:46.594Z,17984
2018-04-02T10:03:48.458Z,18592
2018-04-02T10:04:49.989Z,19936
2018-04-02T10:05:51.657Z,20704
2018-04-02T10:06:53.197Z,21696
2018-04-02T10:07:54.635Z,23776
2018-04-02T10:08:56.076Z,23584
2018-04-02T10:09:57.682Z,22048
2018-04-02T10:10:59.156Z,23712
2018-04-02T10:12:00.594Z,28032
2018-04-02T10:13:02.306Z,27456
2018-04-02T10:14:04.035Z,38016
2018-04-02T10:15:05.890Z,39808
2018-04-02T10:16:08.181Z,33664
2018-04-02T10:17:09.994Z,25152
2018-04-02T10:18:11.832Z,22752
2018-04-02T10:19:13.764Z,22048
2018-04-02T10:20:15.560Z,21312
2018-04-02T10:21:17.039Z,20352
2018-04-02T10:22:18.695Z,19936
2018-04-02T10:23:20.094Z,19488
2018-04-02T10:24:21.742Z,19136
2018-04-02T10:25:23.453Z,20096
2018-04-02T10:26:25.043Z,21344
2018-04-02T10:27:26.747Z,21408
2018-04-02T10:28:28.277Z,21184
2018-04-02T10:29:29.894Z,23968
2018-04-02T10:30:31.358Z,37568
2018-04-02T10:31:32.830Z,32032
2018-04-02T10:32:34.282Z,27168
2018-04-02T10:33:36.115Z,26912
2018-04-02T10:34:38.162Z,24512
2018-04-02T10:35:39.887Z,22176
2018-04-02T10:36:41.384Z,20640
2018-04-02T10:37:42.916Z,20416
2018-04-02T10:38:44.374Z,21120
2018-04-02T10:39:46.060Z,22304
2018-04-02T10:40:47.507Z,23424
2018-04-02T10:41:48.994Z,26080
2018-04-02T10:42:50.566Z,33632
2018-04-02T10:43:52.333Z,22848
2018-04-02T10:44:54.176Z,22656
2018-04-02T10:45:56.021Z,22944
2018-04-02T10:46:57.468Z,21152
2018-04-02T10:47:59.335Z,20704
2018-04-02T10:49:00.979Z,21472
2018-04-02T10:50:02.915Z,25504
2018-04-02T10:51:04.347Z,29984
2018-04-02T10:52:05.784Z,35296
2018-04-02T10:53:07.596Z,36736
2018-04-02T10:54:09.124Z,38592
2018-04-02T10:55:10.685Z,39424
2018-04-02T10:56:12.279Z,43392
2018-04-02T10:57:13.967Z,39072
2018-04-02T10:58:15.818Z,35136
2018-04-02T10:59:17.579Z,30432
2018-04-02T11:00:19.053Z,29984
2018-04-02T11:01:20.685Z,29824
2018-04-02T11:02:22.415Z,36256
2018-04-02T11:03:24.146Z,49888
2018-04-02T11:04:25.877Z,39232
2018-04-02T11:05:27.671Z,40352
2018-04-02T11:06:29.608Z,40608
2018-04-02T11:07:31.049Z,35776
2018-04-02T11:08:32.502Z,32352
2018-04-02T11:09:34.356Z,29536
2018-04-02T11:10:36.033Z,30240
2018-04-02T11:11:37.622Z,31520
2018-04-02T11:12:39.182Z,33696
2018-04-02T11:13:40.930Z,36896
2018-04-02T11:14:42.553Z,41664
2018-04-02T11:15:44.329Z,31840
2018-04-02T11:16:46.081Z,31456
2018-04-02T11:17:47.998Z,32608
2018-04-02T11:18:49.566Z,32032
2018-04-02T11:19:51.119Z,32224
2018-04-02T11:20:53.346Z,37984
2018-04-02T11:21:55.666Z,49344
2018-04-02T11:22:57.340Z,51776
2018-04-02T11:23:59.124Z,71776
2018-04-02T11:25:01.080Z,48544
2018-04-02T11:26:02.568Z,48128
2018-04-02T11:27:04.068Z,37088
2018-04-02T11:28:05.604Z,34048
2018-04-02T11:29:07.041Z,31840
2018-04-02T11:30:08.679Z,31456
2018-04-02T11:31:10.234Z,31520
2018-04-02T11:32:11.719Z,30272
2018-04-02T11:33:13.913Z,30368
2018-04-02T11:34:15.440Z,34016
2018-04-02T11:35:16.944Z,36704
2018-04-02T11:36:18.519Z,35488
2018-04-02T11:37:20.170Z,37568
2018-04-02T11:38:22.009Z,35808
2018-04-02T11:39:23.976Z,31136
2018-04-02T11:40:25.632Z,28992
2018-04-02T11:41:27.767Z,29888
2018-04-02T11:42:29.136Z,30592
2018-04-02T11:43:30.844Z,33600
2018-04-02T11:44:32.512Z,33920
2018-04-02T11:45:34.258Z,32096
2018-04-02T11:46:35.813Z,29216
2018-04-02T11:47:37.528Z,26368
2018-04-02T11:48:39.724Z,26144
2018-04-02T11:49:41.495Z,26496
2018-04-02T11:50:43.258Z,24000
2018-04-02T11:51:45.228Z,22816
2018-04-02T11:52:47.058Z,21920
2018-04-02T11:53:48.571Z,21344
2018-04-02T11:54:50.252Z,20320
2018-04-02T11:55:51.794Z,18944
2018-04-02T11:56:53.517Z,18592
2018-04-02T11:57:55.323Z,18752
2018-04-02T11:58:57.058Z,19328
2018-04-02T11:59:58.730Z,18464
2018-04-02T12:01:00.629Z,19328
2018-04-02T12:02:03.362Z,21952
2018-04-02T12:03:05.131Z,25792
2018-04-02T12:04:06.574Z,30048
2018-04-02T12:05:09.838Z,31264
2018-04-02T12:06:11.820Z,28736
2018-04-02T12:07:13.321Z,26816
2018-04-02T12:08:14.792Z,26976
2018-04-02T12:09:16.339Z,28544
2018-04-02T12:10:17.763Z,29632
2018-04-02T12:11:19.190Z,32672
2018-04-02T12:12:20.664Z,25600
2018-04-02T12:13:22.183Z,24800
2018-04-02T12:14:23.662Z,24320
2018-04-02T12:15:25.141Z,25568
2018-04-02T12:16:26.881Z,23328
2018-04-02T12:17:28.706Z,20832
2018-04-02T12:18:30.392Z,19072
2018-04-02T12:19:32.142Z,17728
2018-04-02T12:20:33.672Z,17792
2018-04-02T12:21:35.285Z,17984
2018-04-02T12:22:36.704Z,18464
2018-04-02T12:23:38.241Z,19552
2018-04-02T12:24:39.660Z,21056
2018-04-02T12:25:41.102Z,22432
2018-04-02T12:26:42.940Z,21472
2018-04-02T12:27:44.594Z,19808
2018-04-02T12:28:46.187Z,19488
2018-04-02T12:29:48.099Z,19040
2018-04-02T12:30:49.606Z,18496
2018-04-02T12:31:51.310Z,18720
2018-04-02T12:32:53.189Z,20320
2018-04-02T12:33:55.529Z,23520
2018-04-02T12:34:56.998Z,27264
2018-04-02T12:35:58.518Z,30592
2018-04-02T12:37:00.330Z,29696
2018-04-02T12:38:02.135Z,30496
2018-04-02T12:39:03.639Z,29056
2018-04-02T12:40:05.138Z,27040
2018-04-02T12:41:06.873Z,24096
2018-04-02T12:42:08.361Z,22208
2018-04-02T12:43:10.148Z,20160
2018-04-02T12:44:11.591Z,17792
2018-04-02T12:45:13.318Z,15548
2018-04-02T12:46:15.196Z,15076
2018-04-02T12:47:16.989Z,15408
2018-04-02T12:48:18.906Z,15204
2018-04-02T12:49:20.778Z,14964
2018-04-02T12:50:22.542Z,14616
2018-04-02T12:51:24.081Z,14320
2018-04-02T12:52:25.867Z,14400
2018-04-02T12:53:27.417Z,14388
2018-04-02T12:54:29.430Z,14328
2018-04-02T12:55:30.805Z,14460
2018-04-02T12:56:32.485Z,14512
2018-04-02T12:57:34.209Z,14116
2018-04-02T12:58:35.721Z,13776
2018-04-02T12:59:38.578Z,14044
2018-04-02T13:00:40.584Z,14512
2018-04-02T13:01:42.493Z,14568
2018-04-02T13:02:44.850Z,14508
2018-04-02T13:03:46.603Z,14564
2018-04-02T13:04:48.108Z,15136
2018-04-02T13:05:49.831Z,15776
2018-04-02T13:06:51.424Z,16096
2018-04-02T13:07:53.128Z,16480
2018-04-02T13:08:55.244Z,17728
2018-04-02T13:09:57.213Z,19712
2018-04-02T13:10:59.059Z,20768
2018-04-02T13:12:00.796Z,21024
2018-04-02T13:13:02.652Z,18240
2018-04-02T13:14:04.504Z,16256
2018-04-02T13:15:06.234Z,15772
2018-04-02T13:16:08.076Z,18176
2018-04-02T13:17:10.088Z,19968
2018-04-02T13:18:11.571Z,24992
2018-04-02T13:19:13.039Z,23296
2018-04-02T13:20:14.818Z,25408
2018-04-02T13:21:16.559Z,26272
2018-04-02T13:22:18.440Z,30272
2018-04-02T13:23:19.935Z,34720
2018-04-02T13:24:21.424Z,42848
2018-04-02T13:25:23.226Z,36544
2018-04-02T13:26:24.966Z,28160
2018-04-02T13:27:26.884Z,25632
2018-04-02T13:28:28.779Z,23424
2018-04-02T13:29:30.268Z,22688
2018-04-02T13:30:32.340Z,21120
2018-04-02T13:31:34.562Z,17760
2018-04-02T13:32:36.817Z,14032
2018-04-02T13:33:38.314Z,12660
2018-04-02T13:34:40.189Z,11692
2018-04-02T13:35:41.679Z,12848
2018-04-02T13:36:43.174Z,14584
2018-04-02T13:37:45.016Z,15252
2018-04-02T13:38:47.029Z,16256
2018-04-02T13:39:48.952Z,16672
2018-04-02T13:40:50.443Z,19584
2018-04-02T13:41:52.032Z,21600
2018-04-02T13:42:53.597Z,20576
2018-04-02T13:43:55.261Z,21312
2018-04-02T13:44:57.442Z,22496
2018-04-02T13:45:59.224Z,27904
2018-04-02T13:47:00.991Z,25408
2018-04-02T13:48:03.013Z,23872
2018-04-02T13:49:04.808Z,21472
2018-04-02T13:50:06.696Z,19392
2018-04-02T13:51:08.118Z,16384
2018-04-02T13:52:09.886Z,14932
2018-04-02T13:53:12.752Z,14416
2018-04-02T13:54:14.205Z,13976
2018-04-02T13:55:16.233Z,14132
2018-04-02T13:56:17.910Z,13796
2018-04-02T13:57:19.634Z,13580